createdAt,value
2022-08-09T00:00:05.849Z,7.80
2022-08-09T00:01:10.658Z,10.60
2022-08-09T00:02:21.050Z,39.45
2022-08-09T00:04:06.166Z,21.88
2022-08-09T00:05:03.580Z,5.65
2022-08-09T00:06:23.036Z,8.60
2022-08-09T00:07:29.752Z,7.38
2022-08-09T00:08:51.927Z,8.68
2022-08-09T00:09:54.333Z,9.52
2022-08-09T00:10:58.943Z,10.75
2022-08-09T00:12:03.896Z,19.67
2022-08-09T00:13:16.658Z,20.48
2022-08-09T00:14:30.640Z,8.02
2022-08-09T00:15:57.912Z,7.90
2022-08-09T00:17:06.721Z,8.48
2022-08-09T00:18:11.410Z,20.33
2022-08-09T00:19:18.567Z,27.52
2022-08-09T00:20:21.344Z,36.63
2022-08-09T00:21:26.537Z,14.63
2022-08-09T00:22:31.666Z,23.80
2022-08-09T00:23:55.257Z,20.80
2022-08-09T00:25:08.534Z,202.25
2022-08-09T00:26:12.439Z,6.38
2022-08-09T00:27:19.201Z,21.77
2022-08-09T00:28:23.048Z,17.17
2022-08-09T00:29:39.117Z,4.70
2022-08-09T00:30:55.863Z,26.48
2022-08-09T00:32:01.177Z,17.52
2022-08-09T00:33:05.530Z,24.73
2022-08-09T00:34:10.835Z,20.80
2022-08-09T00:35:15.692Z,32.47
2022-08-09T00:36:18.714Z,673.17
2022-08-09T00:37:24.069Z,961.95
2022-08-09T00:38:29.140Z,941.53
2022-08-09T00:40:10.405Z,848.97
2022-08-09T00:40:55.923Z,789.10
2022-08-09T00:44:09.935Z,718.13
2022-08-09T00:44:15.930Z,629.40
2022-08-09T00:44:49.798Z,435.10
2022-08-09T00:45:53.941Z,376.52
2022-08-09T00:47:04.775Z,351.08
2022-08-09T00:48:07.851Z,374.45
2022-08-09T00:49:20.601Z,364.10
2022-08-09T00:50:23.636Z,344.55
2022-08-09T00:51:28.426Z,345.05
2022-08-09T00:52:37.557Z,333.85
2022-08-09T00:53:46.435Z,335.75
2022-08-09T00:54:49.458Z,321.75
2022-08-09T00:56:04.750Z,332.45
2022-08-09T00:57:08.824Z,327.33
2022-08-09T00:58:25.561Z,336.70
2022-08-09T00:59:41.319Z,315.85
2022-08-09T01:00:52.741Z,342.35
2022-08-09T01:01:58.591Z,323.15
2022-08-09T01:03:12.504Z,348.75
2022-08-09T01:04:28.725Z,504.85
2022-08-09T01:05:51.670Z,599.78
2022-08-09T01:07:07.039Z,554.65
2022-08-09T01:08:26.863Z,129.38
2022-08-09T01:09:42.620Z,428.75
2022-08-09T01:10:55.388Z,397.10
2022-08-09T01:12:04.046Z,367.52
2022-08-09T01:13:18.197Z,226.20
2022-08-09T01:14:33.348Z,311.90
2022-08-09T01:15:40.889Z,413.08
2022-08-09T01:16:49.760Z,387.15
2022-08-09T01:17:59.486Z,478.92
2022-08-09T01:19:39.953Z,545.42
2022-08-09T01:20:48.718Z,312.55
2022-08-09T01:22:01.320Z,38.22
2022-08-09T01:24:00.849Z,8.68
2022-08-09T01:25:00.841Z,13.65
2022-08-09T01:26:18.471Z,82.07
2022-08-09T01:27:27.378Z,142.68
2022-08-09T01:28:32.281Z,197.73
2022-08-09T01:29:56.304Z,146.65
2022-08-09T01:31:01.325Z,21.58
2022-08-09T01:32:31.361Z,20.95
2022-08-09T01:33:41.794Z,24.65
2022-08-09T01:34:45.272Z,21.10
2022-08-09T01:35:57.445Z,109.97
2022-08-09T01:37:04.757Z,7.63
2022-08-09T01:38:15.372Z,7.25
2022-08-09T01:39:19.962Z,14.65
2022-08-09T01:40:31.157Z,17.52
2022-08-09T01:41:36.346Z,29.17
2022-08-09T01:43:01.506Z,12.43
2022-08-09T01:44:06.288Z,15.48
2022-08-09T01:45:13.837Z,11.07
2022-08-09T01:46:18.242Z,4.55
2022-08-09T01:47:31.394Z,9.38
2022-08-09T01:48:36.172Z,7.75
2022-08-09T01:49:48.878Z,23.92
2022-08-09T01:50:55.531Z,15.02
2022-08-09T01:52:07.434Z,19.10
2022-08-09T01:53:20.026Z,24.48
2022-08-09T01:54:32.847Z,15.05
2022-08-09T01:56:47.101Z,9.90
2022-08-09T01:57:58.608Z,7.25
2022-08-09T01:59:08.478Z,21.88
2022-08-09T02:00:19.436Z,8.48
2022-08-09T02:01:59.405Z,27.65
2022-08-09T02:03:05.339Z,5.50
2022-08-09T02:04:13.499Z,5.50
2022-08-09T02:05:21.683Z,18.35
2022-08-09T02:06:58.705Z,10.43
2022-08-09T02:08:41.308Z,18.10
2022-08-09T02:09:41.874Z,8.77
2022-08-09T02:10:51.654Z,5.72
2022-08-09T02:11:55.552Z,10.02
2022-08-09T02:13:06.095Z,27.65
2022-08-09T02:14:15.764Z,25.88
2022-08-09T02:15:48.812Z,19.13
2022-08-09T02:16:59.873Z,10.57
2022-08-09T02:18:23.669Z,10.82
2022-08-09T02:19:38.812Z,48.00
2022-08-09T02:20:51.476Z,11.60
2022-08-09T02:21:58.271Z,13.88
2022-08-09T02:23:09.041Z,7.60
2022-08-09T02:24:26.467Z,27.10
2022-08-09T02:25:42.649Z,33.60
2022-08-09T02:26:55.948Z,21.88
2022-08-09T02:28:09.770Z,48.05
2022-08-09T02:29:24.799Z,20.25
2022-08-09T02:30:34.457Z,10.77
2022-08-09T02:31:41.760Z,15.70
2022-08-09T02:32:51.047Z,20.67
2022-08-09T02:34:07.252Z,10.93
2022-08-09T02:36:01.304Z,15.98
2022-08-09T02:36:54.494Z,736.10
2022-08-09T02:38:00.835Z,702.45
2022-08-09T02:39:14.245Z,466.05
2022-08-09T02:40:27.119Z,529.85
2022-08-09T02:41:41.219Z,14.85
2022-08-09T02:42:51.168Z,645.72
2022-08-09T02:43:59.948Z,677.15
2022-08-09T02:45:17.572Z,780.65
2022-08-09T02:46:21.612Z,658.90
2022-08-09T02:47:26.962Z,580.88
2022-08-09T02:48:39.090Z,486.63
2022-08-09T02:50:01.617Z,652.13
2022-08-09T02:51:06.883Z,348.60
2022-08-09T02:52:16.592Z,391.40
2022-08-09T02:53:27.457Z,414.75
2022-08-09T02:54:32.894Z,102.28
2022-08-09T02:55:46.204Z,148.95
2022-08-09T02:56:54.017Z,240.15
2022-08-09T02:58:35.270Z,265.77
2022-08-09T02:59:36.359Z,151.60
2022-08-09T03:00:58.276Z,121.97
2022-08-09T03:02:07.080Z,191.98
2022-08-09T03:03:21.712Z,277.90
2022-08-09T03:04:42.803Z,39.30
2022-08-09T03:05:46.688Z,31.25
2022-08-09T03:06:53.678Z,18.88
2022-08-09T03:07:59.541Z,22.38
2022-08-09T03:09:03.132Z,29.55
2022-08-09T03:10:09.290Z,34.95
2022-08-09T03:12:05.205Z,26.67
2022-08-09T03:12:42.294Z,26.65
2022-08-09T03:13:58.428Z,21.30
2022-08-09T03:15:05.799Z,588.15
2022-08-09T03:16:11.433Z,14.55
2022-08-09T03:17:26.392Z,18.58
2022-08-09T03:18:30.642Z,25.95
2022-08-09T03:19:59.415Z,35.20
2022-08-09T03:21:04.012Z,291.98
2022-08-09T03:22:12.260Z,642.72
2022-08-09T03:23:32.740Z,14.13
2022-08-09T03:24:51.055Z,15.63
2022-08-09T03:26:04.996Z,34.25
2022-08-09T03:27:09.405Z,10.32
2022-08-09T03:28:16.316Z,29.60
2022-08-09T03:29:22.620Z,6.28
2022-08-09T03:30:33.717Z,5.22
2022-08-09T03:31:42.595Z,6.07
2022-08-09T03:33:17.201Z,13.60
2022-08-09T03:34:20.571Z,27.73
2022-08-09T03:36:36.899Z,25.02
2022-08-09T03:37:55.835Z,16.48
2022-08-09T03:39:02.271Z,10.02
2022-08-09T03:40:06.105Z,13.18
2022-08-09T03:41:15.439Z,17.05
2022-08-09T03:42:26.284Z,5.75
2022-08-09T03:43:33.721Z,15.88
2022-08-09T03:44:38.561Z,20.33
2022-08-09T03:46:04.341Z,28.77
2022-08-09T03:47:10.452Z,10.98
2022-08-09T03:48:12.528Z,31.45
2022-08-09T03:49:25.453Z,8.30
2022-08-09T03:50:36.621Z,13.85
2022-08-09T03:51:56.443Z,29.60
2022-08-09T03:53:06.104Z,32.20
2022-08-09T03:54:15.134Z,17.42
2022-08-09T03:55:22.197Z,24.98
2022-08-09T03:56:25.541Z,36.40
2022-08-09T03:57:30.242Z,27.77
2022-08-09T03:58:34.198Z,20.45
2022-08-09T03:59:43.277Z,15.57
2022-08-09T04:00:56.777Z,15.85
2022-08-09T04:02:02.621Z,10.85
2022-08-09T04:03:15.290Z,24.60
2022-08-09T04:04:22.107Z,9.57
2022-08-09T04:05:29.556Z,21.88
2022-08-09T04:06:36.428Z,26.55
2022-08-09T04:07:52.502Z,12.25
2022-08-09T04:09:02.867Z,33.80
2022-08-09T04:10:29.099Z,21.00
2022-08-09T04:11:51.559Z,17.30
2022-08-09T04:12:57.711Z,8.35
2022-08-09T04:14:54.158Z,30.38
2022-08-09T04:16:47.421Z,532.95
2022-08-09T04:17:52.755Z,906.40
2022-08-09T04:19:02.386Z,792.22
2022-08-09T04:20:08.480Z,816.65
2022-08-09T04:21:13.109Z,865.80
2022-08-09T04:22:15.128Z,822.90
2022-08-09T04:23:24.488Z,813.88
2022-08-09T04:24:27.711Z,894.42
2022-08-09T04:25:32.980Z,886.08
2022-08-09T04:26:38.263Z,874.03
2022-08-09T04:27:48.916Z,878.60
2022-08-09T04:28:54.074Z,867.67
2022-08-09T04:30:02.635Z,858.03
2022-08-09T04:31:08.333Z,860.17
2022-08-09T04:32:14.274Z,836.88
2022-08-09T04:33:16.342Z,824.03
2022-08-09T04:34:30.727Z,19.38
2022-08-09T04:35:34.278Z,22.92
2022-08-09T04:36:41.330Z,9.90
2022-08-09T04:37:54.890Z,10.95
2022-08-09T04:38:59.567Z,10.02
2022-08-09T04:40:04.590Z,60.25
2022-08-09T04:41:09.810Z,10.50
2022-08-09T04:42:16.686Z,15.13
2022-08-09T04:43:20.745Z,30.10
2022-08-09T04:44:26.236Z,17.50
2022-08-09T04:45:30.659Z,12.38
2022-08-09T04:46:38.270Z,12.93
2022-08-09T04:48:02.101Z,18.33
2022-08-09T04:49:07.828Z,16.23
2022-08-09T04:50:15.614Z,15.85
2022-08-09T04:51:21.796Z,14.60
2022-08-09T04:52:30.620Z,20.27
2022-08-09T04:53:32.676Z,20.38
2022-08-09T04:54:39.354Z,11.50
2022-08-09T04:55:57.280Z,19.85
2022-08-09T04:57:03.790Z,19.23
2022-08-09T04:58:09.938Z,17.25
2022-08-09T04:59:15.458Z,18.20
2022-08-09T05:00:20.830Z,13.75
2022-08-09T05:01:22.941Z,9.02
2022-08-09T05:02:28.942Z,16.10
2022-08-09T05:03:42.567Z,19.83
2022-08-09T05:04:48.467Z,37.22
2022-08-09T05:06:04.334Z,18.75
2022-08-09T05:07:12.848Z,17.80
2022-08-09T05:08:21.332Z,24.27
2022-08-09T05:09:48.791Z,6.78
2022-08-09T05:10:50.730Z,15.25
2022-08-09T05:11:52.774Z,9.63
2022-08-09T05:12:57.706Z,16.00
2022-08-09T05:14:01.739Z,7.90
2022-08-09T05:15:38.743Z,10.40
2022-08-09T05:16:58.197Z,23.23
2022-08-09T05:18:38.047Z,6.50
2022-08-09T05:19:25.800Z,13.63
2022-08-09T05:20:29.966Z,19.85
2022-08-09T05:21:47.152Z,16.80
2022-08-09T05:23:57.134Z,17.73
2022-08-09T05:24:24.301Z,8.10
2022-08-09T05:25:28.341Z,13.18
2022-08-09T05:26:45.519Z,8.60
2022-08-09T05:27:48.476Z,27.98
2022-08-09T05:28:53.262Z,8.85
2022-08-09T05:29:55.316Z,13.85
2022-08-09T05:31:00.077Z,18.67
2022-08-09T05:32:11.783Z,34.75
2022-08-09T05:33:26.378Z,17.65
2022-08-09T05:34:37.618Z,17.13
2022-08-09T05:35:47.038Z,18.27
2022-08-09T05:36:58.836Z,9.68
2022-08-09T05:38:04.226Z,14.45
2022-08-09T05:39:10.409Z,7.00
2022-08-09T05:40:13.428Z,6.55
2022-08-09T05:41:18.537Z,16.38
2022-08-09T05:42:22.085Z,6.50
2022-08-09T05:43:35.381Z,7.55
2022-08-09T05:44:38.553Z,20.77
2022-08-09T05:45:56.715Z,7.85
2022-08-09T05:46:59.434Z,15.02
2022-08-09T05:48:03.981Z,20.67
2022-08-09T05:49:07.441Z,28.90
2022-08-09T05:50:39.978Z,10.20
2022-08-09T05:51:55.465Z,39.33
2022-08-09T05:53:02.547Z,12.10
2022-08-09T05:54:05.825Z,15.20
2022-08-09T05:55:20.669Z,12.50
2022-08-09T05:56:26.466Z,26.50
2022-08-09T05:57:50.814Z,35.90
2022-08-09T06:00:01.081Z,7.53
2022-08-09T06:01:06.709Z,10.52
2022-08-09T06:02:09.976Z,10.45
2022-08-09T06:03:19.910Z,16.55
2022-08-09T06:04:23.364Z,25.98
2022-08-09T06:05:30.654Z,16.35
2022-08-09T06:06:53.688Z,32.90
2022-08-09T06:08:07.896Z,21.70
2022-08-09T06:09:40.798Z,20.92
2022-08-09T06:10:40.963Z,16.30
2022-08-09T06:11:56.821Z,15.43
2022-08-09T06:13:04.571Z,16.52
2022-08-09T06:14:14.791Z,19.30
2022-08-09T06:15:20.355Z,31.50
2022-08-09T06:16:23.670Z,32.45
2022-08-09T06:17:40.087Z,18.17
2022-08-09T06:18:42.789Z,19.00
2022-08-09T06:19:48.403Z,11.68
2022-08-09T06:20:54.883Z,30.10
2022-08-09T06:22:02.708Z,7.68
2022-08-09T06:23:08.411Z,11.02
2022-08-09T06:24:16.945Z,45.40
2022-08-09T06:25:19.385Z,13.27
2022-08-09T06:26:28.155Z,7.30
2022-08-09T06:27:42.871Z,20.25
2022-08-09T06:28:45.646Z,27.17
2022-08-09T06:29:58.591Z,16.27
2022-08-09T06:31:11.689Z,33.72
2022-08-09T06:32:53.452Z,22.73
2022-08-09T06:33:42.148Z,22.77
2022-08-09T06:34:53.167Z,17.45
2022-08-09T06:35:58.504Z,16.50
2022-08-09T06:37:00.736Z,12.50
2022-08-09T06:38:06.940Z,28.08
2022-08-09T06:39:12.753Z,22.30
2022-08-09T06:40:21.787Z,25.73
2022-08-09T06:42:51.389Z,32.90
2022-08-09T06:43:53.447Z,25.65
2022-08-09T06:44:58.273Z,34.83
2022-08-09T06:46:07.568Z,27.15
2022-08-09T06:47:15.410Z,32.78
2022-08-09T06:48:17.436Z,34.15
2022-08-09T06:50:12.234Z,26.00
2022-08-09T06:50:57.364Z,16.55
2022-08-09T06:52:02.917Z,15.45
2022-08-09T06:53:07.958Z,17.17
2022-08-09T06:54:16.011Z,18.77
2022-08-09T06:55:30.121Z,24.30
2022-08-09T07:00:51.087Z,6.18
2022-08-09T07:00:55.907Z,4.85
2022-08-09T07:01:59.665Z,17.73
2022-08-09T07:03:08.585Z,20.35
2022-08-09T07:04:20.226Z,5.50
2022-08-09T07:05:22.561Z,9.65
2022-08-09T07:06:27.932Z,7.35
2022-08-09T07:08:00.847Z,21.60
2022-08-09T07:08:56.495Z,31.75
2022-08-09T07:10:14.324Z,19.17
2022-08-09T07:11:25.843Z,19.02
2022-08-09T07:12:40.600Z,16.00
2022-08-09T07:14:05.009Z,11.85
2022-08-09T07:16:35.324Z,20.65
2022-08-09T07:16:41.533Z,21.60
2022-08-09T07:17:52.607Z,10.25
2022-08-09T07:19:01.122Z,11.93
2022-08-09T07:20:03.338Z,8.65
2022-08-09T07:21:08.831Z,38.95
2022-08-09T07:22:11.655Z,14.05
2022-08-09T07:23:18.769Z,34.30
2022-08-09T07:24:21.997Z,8.77
2022-08-09T07:25:42.781Z,18.13
2022-08-09T07:26:45.998Z,14.37
2022-08-09T07:27:55.742Z,18.83
2022-08-09T07:29:09.328Z,28.90
2022-08-09T07:30:18.298Z,28.15
2022-08-09T07:31:20.443Z,14.90
2022-08-09T07:32:32.022Z,18.20
2022-08-09T07:33:52.920Z,30.15
2022-08-09T07:35:00.986Z,21.13
2022-08-09T07:36:09.387Z,4.82
2022-08-09T07:37:15.797Z,7.95
2022-08-09T07:38:18.673Z,13.57
2022-08-09T07:39:40.795Z,19.50
2022-08-09T07:41:08.318Z,18.52
2022-08-09T07:42:11.765Z,5.70
2022-08-09T07:43:17.090Z,15.23
2022-08-09T07:44:30.284Z,4.00
2022-08-09T07:45:39.779Z,7.97
2022-08-09T07:46:43.072Z,43.88
2022-08-09T07:48:00.961Z,16.02
2022-08-09T07:49:09.256Z,28.35
2022-08-09T07:50:17.783Z,17.13
2022-08-09T07:52:05.878Z,18.42
2022-08-09T07:52:47.124Z,5.47
2022-08-09T07:54:06.183Z,6.97
2022-08-09T07:55:12.643Z,26.60
2022-08-09T07:56:26.830Z,18.58
2022-08-09T07:57:36.029Z,13.82
2022-08-09T07:58:38.429Z,24.38
2022-08-09T07:59:45.695Z,33.53
2022-08-09T08:00:59.165Z,26.38
2022-08-09T08:02:16.651Z,26.17
2022-08-09T08:03:21.590Z,50.17
2022-08-09T08:04:32.936Z,8.70
2022-08-09T08:05:39.181Z,20.70
2022-08-09T08:07:00.175Z,44.40
2022-08-09T08:09:01.542Z,43.03
2022-08-09T08:09:51.774Z,7.18
2022-08-09T08:11:15.182Z,12.10
2022-08-09T08:12:29.563Z,9.20
2022-08-09T08:13:39.966Z,38.25
2022-08-09T08:15:00.808Z,26.80
2022-08-09T08:16:03.502Z,16.77
2022-08-09T08:17:08.938Z,30.88
2022-08-09T08:18:16.228Z,43.13
2022-08-09T08:19:22.037Z,11.68
2022-08-09T08:20:29.561Z,21.33
2022-08-09T08:21:39.471Z,14.27
2022-08-09T08:22:41.961Z,12.82
2022-08-09T08:23:56.165Z,35.53
2022-08-09T08:24:58.482Z,20.58
2022-08-09T08:26:08.022Z,11.75
2022-08-09T08:27:16.500Z,23.20
2022-08-09T08:28:32.038Z,17.67
2022-08-09T08:29:39.612Z,20.73
2022-08-09T08:30:50.308Z,7.78
2022-08-09T08:32:03.248Z,11.25
2022-08-09T08:33:11.983Z,35.53
2022-08-09T08:34:14.300Z,17.58
2022-08-09T08:35:19.077Z,23.00
2022-08-09T08:36:28.375Z,23.50
2022-08-09T08:37:41.453Z,19.42
2022-08-09T08:39:00.029Z,6.63
2022-08-09T08:40:05.289Z,15.55
2022-08-09T08:41:07.844Z,8.02
2022-08-09T08:42:14.425Z,28.42
2022-08-09T08:43:19.157Z,12.75
2022-08-09T08:44:31.793Z,7.18
2022-08-09T08:45:51.743Z,7.07
2022-08-09T08:47:04.525Z,37.35
2022-08-09T08:48:19.570Z,34.03
2022-08-09T08:49:26.817Z,19.60
2022-08-09T08:50:45.468Z,20.60
2022-08-09T08:52:00.181Z,16.55
2022-08-09T08:53:15.864Z,10.40
2022-08-09T08:54:28.113Z,18.02
2022-08-09T08:55:32.358Z,21.38
2022-08-09T08:56:38.566Z,30.00
2022-08-09T08:57:56.586Z,23.40
2022-08-09T08:59:07.968Z,9.85
2022-08-09T09:00:30.230Z,62.83
2022-08-09T09:01:52.152Z,25.00
2022-08-09T09:03:12.037Z,19.85
2022-08-09T09:04:27.087Z,6.60
2022-08-09T09:05:59.925Z,7.50
2022-08-09T09:07:08.123Z,14.27
2022-08-09T09:08:30.388Z,11.73
2022-08-09T09:09:58.763Z,5.50
2022-08-09T09:11:05.836Z,8.50
2022-08-09T09:12:12.130Z,13.55
2022-08-09T09:13:22.323Z,17.75
2022-08-09T09:14:27.176Z,17.15
2022-08-09T09:15:35.017Z,17.35
2022-08-09T09:16:37.163Z,9.35
2022-08-09T09:17:49.243Z,13.32
2022-08-09T09:19:10.815Z,24.75
2022-08-09T09:20:21.280Z,18.60
2022-08-09T09:21:26.201Z,13.80
2022-08-09T09:22:31.492Z,10.52
2022-08-09T09:23:49.795Z,25.08
2022-08-09T09:25:39.305Z,23.25
2022-08-09T09:26:27.875Z,12.60
2022-08-09T09:28:05.804Z,8.60
2022-08-09T09:29:04.260Z,15.98
2022-08-09T09:30:31.560Z,16.35
2022-08-09T09:32:03.467Z,20.23
2022-08-09T09:33:13.740Z,6.13
2022-08-09T09:34:18.320Z,9.35
2022-08-09T09:35:24.616Z,5.63
2022-08-09T09:36:40.161Z,26.95
2022-08-09T09:37:56.984Z,8.80
2022-08-09T09:39:02.470Z,6.82
2022-08-09T09:40:13.204Z,11.05
2022-08-09T09:41:49.882Z,9.65
2022-08-09T09:42:56.244Z,14.32
2022-08-09T09:44:12.760Z,20.40
2022-08-09T09:45:26.627Z,15.82
2022-08-09T09:46:45.644Z,13.38
2022-08-09T09:47:59.567Z,7.63
2022-08-09T09:49:04.989Z,13.30
2022-08-09T09:50:15.928Z,91.97
2022-08-09T09:51:26.011Z,42.08
2022-08-09T09:52:53.668Z,316.20
2022-08-09T09:54:20.269Z,452.60
2022-08-09T09:55:32.040Z,290.35
2022-08-09T09:56:37.472Z,368.02
2022-08-09T09:58:16.155Z,714.78
2022-08-09T09:59:35.163Z,834.13
2022-08-09T10:00:43.856Z,705.75
2022-08-09T10:02:02.752Z,219.40
2022-08-09T10:03:11.697Z,221.55
2022-08-09T10:04:22.772Z,368.08
2022-08-09T10:06:03.722Z,380.52
2022-08-09T10:06:57.805Z,259.95
2022-08-09T10:08:27.466Z,127.32
2022-08-09T10:09:29.644Z,69.18
2022-08-09T10:10:34.260Z,24.05
2022-08-09T10:11:59.624Z,69.57
2022-08-09T10:13:01.373Z,274.50
2022-08-09T10:14:06.941Z,524.58
2022-08-09T10:15:17.642Z,636.83
2022-08-09T10:16:58.346Z,795.78
2022-08-09T10:17:57.024Z,686.45
2022-08-09T10:19:07.412Z,600.78
2022-08-09T10:20:35.760Z,491.80
2022-08-09T10:21:49.791Z,463.60
2022-08-09T10:23:00.947Z,450.35
2022-08-09T10:24:07.102Z,329.52
2022-08-09T10:25:20.830Z,277.23
2022-08-09T10:26:26.695Z,496.65
2022-08-09T10:27:38.460Z,536.95
2022-08-09T10:28:49.026Z,580.63
2022-08-09T10:31:21.642Z,466.38
2022-08-09T10:33:01.444Z,367.65
2022-08-09T10:34:18.396Z,322.95
2022-08-09T10:35:35.610Z,310.73
2022-08-09T10:36:42.292Z,280.92
2022-08-09T10:37:44.805Z,254.65
2022-08-09T10:38:56.383Z,236.85
2022-08-09T10:40:02.316Z,96.85
2022-08-09T10:41:07.496Z,56.50
2022-08-09T10:42:10.864Z,49.13
2022-08-09T10:43:16.341Z,79.88
2022-08-09T10:44:30.501Z,213.68
2022-08-09T10:45:35.675Z,14.95
2022-08-09T10:48:16.899Z,40.45
2022-08-09T10:48:39.456Z,26.80
2022-08-09T10:49:51.761Z,18.67
2022-08-09T10:51:09.759Z,25.60
2022-08-09T10:52:32.375Z,9.57
2022-08-09T10:54:05.918Z,15.32
2022-08-09T10:55:23.580Z,9.40
2022-08-09T10:56:30.758Z,8.82
2022-08-09T10:57:37.555Z,16.58
2022-08-09T10:58:42.813Z,11.20
2022-08-09T10:59:57.730Z,17.10
2022-08-09T11:03:07.387Z,5.32
2022-08-09T11:03:14.428Z,9.02
2022-08-09T11:04:27.841Z,24.15
2022-08-09T11:05:39.200Z,11.88
2022-08-09T11:07:55.187Z,9.55
2022-08-09T11:09:06.026Z,6.40
2022-08-09T11:10:20.151Z,19.55
2022-08-09T11:13:51.426Z,6.38
2022-08-09T11:14:48.517Z,9.35
2022-08-09T11:16:04.790Z,8.68
2022-08-09T11:17:57.026Z,2.50
2022-08-09T11:19:08.076Z,6.13
2022-08-09T11:20:22.196Z,7.28
2022-08-09T11:21:55.203Z,6.20
2022-08-09T11:24:13.339Z,3.65
2022-08-09T11:25:18.828Z,8.13
2022-08-09T11:26:47.277Z,4.53
2022-08-09T11:28:05.589Z,6.78
2022-08-09T11:30:02.343Z,23.08
2022-08-09T11:31:49.453Z,8.85
2022-08-09T11:33:00.100Z,8.40
2022-08-09T11:34:06.669Z,4.90
2022-08-09T11:35:17.810Z,5.57
2022-08-09T11:36:35.556Z,4.55
2022-08-09T11:37:43.306Z,26.13
2022-08-09T11:39:04.951Z,24.67
2022-08-09T11:40:09.268Z,3.47
2022-08-09T11:41:37.927Z,2.88
2022-08-09T11:42:47.124Z,30.88
2022-08-09T11:43:53.428Z,18.00
2022-08-09T11:44:58.221Z,16.35
2022-08-09T11:46:01.830Z,16.05
2022-08-09T11:47:10.956Z,16.77
2022-08-09T11:48:27.016Z,13.05
2022-08-09T11:51:19.069Z,4.10
2022-08-09T11:52:54.183Z,14.55
2022-08-09T11:53:59.196Z,11.70
2022-08-09T11:55:53.471Z,13.18
2022-08-09T11:58:00.734Z,14.88
2022-08-09T11:59:06.379Z,13.90
2022-08-09T12:00:15.873Z,2.92
2022-08-09T12:02:15.894Z,4.80
2022-08-09T12:03:00.262Z,21.00
2022-08-09T12:04:32.549Z,6.22
2022-08-09T12:05:42.301Z,3.83
2022-08-09T12:06:56.621Z,5.50
2022-08-09T12:08:00.347Z,4.20
2022-08-09T12:09:15.067Z,17.30
2022-08-09T12:10:38.435Z,18.40
2022-08-09T12:12:03.107Z,5.18
2022-08-09T12:14:09.719Z,14.55
2022-08-09T12:14:41.051Z,12.57
2022-08-09T12:16:03.051Z,11.50
2022-08-09T12:17:34.578Z,6.10
2022-08-09T12:18:36.254Z,5.03
2022-08-09T12:19:42.442Z,9.32
2022-08-09T12:20:46.507Z,12.50
2022-08-09T12:21:51.572Z,17.23
2022-08-09T12:22:57.161Z,13.02
2022-08-09T12:24:09.216Z,22.05
2022-08-09T12:25:14.975Z,15.13
2022-08-09T12:26:26.032Z,21.67
2022-08-09T12:29:13.477Z,10.25
2022-08-09T12:29:29.490Z,9.57
2022-08-09T12:30:36.313Z,12.60
2022-08-09T12:31:58.933Z,8.20
2022-08-09T12:33:08.531Z,7.03
2022-08-09T12:34:18.729Z,11.80
2022-08-09T12:35:24.820Z,4.53
2022-08-09T12:36:33.608Z,11.77
2022-08-09T12:37:49.742Z,12.02
2022-08-09T12:38:54.982Z,13.88
2022-08-09T12:40:05.490Z,10.63
2022-08-09T12:41:08.295Z,9.77
2022-08-09T12:42:16.874Z,2.97
2022-08-09T12:43:23.407Z,2.22
2022-08-09T12:44:52.287Z,9.55
2022-08-09T12:45:59.767Z,4.57
2022-08-09T12:47:05.646Z,10.50
2022-08-09T12:48:27.835Z,16.55
2022-08-09T12:49:51.278Z,6.63
2022-08-09T12:50:56.235Z,11.43
2022-08-09T12:52:03.618Z,3.03
2022-08-09T12:53:18.066Z,7.65
2022-08-09T12:54:24.443Z,3.88
2022-08-09T12:56:15.668Z,4.35
2022-08-09T12:56:55.816Z,1.42
2022-08-09T12:58:11.678Z,4.25
2022-08-09T12:59:57.531Z,6.20
2022-08-09T13:00:57.580Z,7.72
2022-08-09T13:02:09.628Z,9.20
2022-08-09T13:03:24.506Z,4.93
2022-08-09T13:04:38.807Z,10.70
2022-08-09T13:05:51.649Z,3.10
2022-08-09T13:07:14.460Z,8.38
2022-08-09T13:08:39.731Z,8.23
2022-08-09T13:09:52.874Z,4.97
2022-08-09T13:11:23.121Z,9.75
2022-08-09T13:12:29.653Z,4.43
2022-08-09T13:13:38.283Z,13.02
2022-08-09T13:15:07.634Z,1.73
2022-08-09T13:16:12.563Z,3.80
2022-08-09T13:17:43.775Z,4.93
2022-08-09T13:18:49.032Z,6.65
2022-08-09T13:20:10.403Z,3.45
2022-08-09T13:22:38.313Z,5.07
2022-08-09T13:23:05.881Z,8.55
2022-08-09T13:24:53.217Z,12.82
2022-08-09T13:25:43.089Z,2.05
2022-08-09T13:26:58.563Z,10.35
2022-08-09T13:28:14.165Z,4.50
2022-08-09T13:30:02.446Z,2.25
2022-08-09T13:32:15.577Z,2.78
2022-08-09T13:32:50.088Z,12.00
2022-08-09T13:33:54.860Z,7.68
2022-08-09T13:34:59.548Z,1.80
2022-08-09T13:36:37.464Z,3.05
2022-08-09T13:37:51.855Z,8.40
2022-08-09T13:38:57.608Z,3.92
2022-08-09T13:41:56.539Z,7.60
2022-08-09T13:41:57.273Z,3.22
2022-08-09T13:42:53.388Z,14.55
2022-08-09T13:43:55.550Z,16.65
2022-08-09T13:45:00.188Z,9.43
2022-08-09T13:46:44.608Z,10.48
2022-08-09T13:47:43.974Z,9.77
2022-08-09T13:48:54.108Z,10.93
2022-08-09T13:50:01.367Z,4.43
2022-08-09T13:51:03.893Z,9.10
2022-08-09T13:52:09.667Z,5.28
2022-08-09T13:53:17.501Z,5.90
2022-08-09T13:54:20.079Z,6.00
2022-08-09T13:55:30.566Z,9.57
2022-08-09T13:56:32.562Z,6.80
2022-08-09T13:57:40.182Z,9.77
2022-08-09T13:58:45.341Z,7.93
2022-08-09T13:59:47.409Z,7.75
2022-08-09T14:00:52.743Z,8.57
2022-08-09T14:01:56.351Z,6.68
2022-08-09T14:04:02.403Z,4.78
2022-08-09T14:04:33.071Z,4.07
2022-08-09T14:05:58.604Z,8.10
2022-08-09T14:07:04.420Z,5.45
2022-08-09T14:08:10.388Z,5.45
2022-08-09T14:09:15.609Z,10.38
2022-08-09T14:10:37.257Z,19.73
2022-08-09T14:11:47.786Z,3.63
2022-08-09T14:12:52.699Z,4.97
2022-08-09T14:14:22.680Z,4.10
2022-08-09T14:16:07.148Z,4.60
2022-08-09T14:16:44.026Z,7.85
2022-08-09T14:18:06.448Z,5.25
2022-08-09T14:19:13.337Z,3.40
2022-08-09T14:20:16.074Z,7.43
2022-08-09T14:21:23.079Z,4.35
2022-08-09T14:22:25.530Z,3.45
2022-08-09T14:23:40.145Z,10.43
2022-08-09T14:24:57.500Z,12.50
2022-08-09T14:26:01.613Z,6.50
2022-08-09T14:27:15.021Z,4.82
2022-08-09T14:28:22.248Z,3.88
2022-08-09T14:30:33.281Z,10.32
2022-08-09T14:30:56.265Z,8.93
2022-08-09T14:32:10.654Z,1.70
2022-08-09T14:33:21.048Z,7.03
2022-08-09T14:34:30.831Z,12.05
2022-08-09T14:35:51.944Z,7.43
2022-08-09T14:36:55.133Z,8.43
2022-08-09T14:38:03.078Z,3.60
2022-08-09T14:39:08.869Z,4.68
2022-08-09T14:40:17.031Z,2.35
2022-08-09T14:41:34.367Z,3.05
2022-08-09T14:42:43.914Z,4.97
2022-08-09T14:43:53.557Z,20.45
2022-08-09T14:45:00.210Z,6.93
2022-08-09T14:46:56.603Z,8.75
2022-08-09T14:47:44.941Z,6.20
2022-08-09T14:48:54.251Z,2.10
2022-08-09T14:50:01.854Z,15.30
2022-08-09T14:51:07.600Z,16.58
2022-08-09T14:52:13.654Z,10.75
2022-08-09T14:53:17.283Z,11.50
2022-08-09T14:54:22.515Z,5.85
2022-08-09T14:55:35.464Z,14.52
2022-08-09T14:56:58.246Z,10.05
2022-08-09T14:58:03.543Z,3.15
2022-08-09T14:59:05.875Z,4.20
2022-08-09T15:00:19.230Z,4.07
2022-08-09T15:01:21.640Z,5.30
2022-08-09T15:02:26.387Z,9.13
2022-08-09T15:03:28.700Z,11.80
2022-08-09T15:04:33.334Z,5.18
2022-08-09T15:05:36.644Z,5.40
2022-08-09T15:06:41.574Z,6.55
2022-08-09T15:07:56.222Z,6.25
2022-08-09T15:09:01.452Z,4.15
2022-08-09T15:10:11.284Z,14.57
2022-08-09T15:11:21.656Z,17.95
2022-08-09T15:12:24.487Z,12.25
2022-08-09T15:13:48.089Z,13.40
2022-08-09T15:14:56.879Z,5.97
2022-08-09T15:15:58.933Z,7.60
2022-08-09T15:17:04.841Z,5.82
2022-08-09T15:18:14.248Z,10.45
2022-08-09T15:19:19.901Z,10.93
2022-08-09T15:21:55.589Z,4.85
2022-08-09T15:22:01.190Z,12.48
2022-08-09T15:24:01.704Z,12.95
2022-08-09T15:24:33.075Z,3.20
2022-08-09T15:25:40.801Z,7.63
2022-08-09T15:26:48.610Z,4.10
2022-08-09T15:28:00.522Z,7.95
2022-08-09T15:29:06.396Z,8.07
2022-08-09T15:30:55.571Z,16.05
2022-08-09T15:31:41.965Z,7.18
2022-08-09T15:32:45.719Z,7.05
2022-08-09T15:34:18.225Z,3.53
2022-08-09T15:35:18.049Z,10.13
2022-08-09T15:36:25.482Z,5.07
2022-08-09T15:37:57.186Z,4.45
2022-08-09T15:39:03.976Z,5.55
2022-08-09T15:40:12.103Z,5.40
2022-08-09T15:41:22.345Z,6.07
2022-08-09T15:42:29.805Z,10.18
2022-08-09T15:43:37.931Z,4.63
2022-08-09T15:44:40.123Z,3.67
2022-08-09T15:46:07.439Z,2.78
2022-08-09T15:47:14.542Z,6.55
2022-08-09T15:48:30.845Z,1.63
2022-08-09T15:49:34.264Z,3.97
2022-08-09T15:50:43.723Z,5.22